Time,TemperatureF,DewpointF,PressureIn,WindDirection,WindDirectionDegrees,WindSpeedMPH,WindSpeedGustMPH,Humidity,HourlyPrecipIn,Conditions,Clouds,dailyrainin,SoftwareType,DateUTC
2013-05-19 00:00:00,53.0,48.9,30.23,SSW,192,0.0,0.0,86,0.00,,---,0.00,VWS V14.01,2013-05-19 04:00:00,
2013-05-19 00:01:00,53.0,48.9,30.24,SSW,192,0.0,0.0,86,0.00,,---,0.00,VWS V14.01,2013-05-19 04:01:00,
2013-05-19 00:02:00,53.0,48.9,30.23,SSW,192,0.0,0.0,86,0.00,,---,0.00,VWS V14.01,2013-05-19 04:02:00,
2013-05-19 00:04:00,52.9,48.8,30.24,SSW,192,0.0,0.0,86,0.00,,---,0.00,VWS V14.01,2013-05-19 04:04:00,
2013-05-19 00:05:00,52.9,48.8,30.24,SSW,192,0.0,0.0,86,0.00,,---,0.00,VWS V14.01,2013-05-19 04:05:00,
2013-05-19 00:09:00,52.8,48.7,30.23,SSW,192,0.0,0.0,86,0.00,,---,0.00,VWS V14.01,2013-05-19 04:09:00,
2013-05-19 00:10:00,52.8,48.7,30.24,SSW,192,0.0,0.0,86,0.00,,---,0.00,VWS V14.01,2013-05-19 04:10:00,
2013-05-19 00:14:00,52.8,48.7,30.23,SSW,192,0.0,0.0,86,0.00,,---,0.00,VWS V14.01,2013-05-19 04:14:00,
2013-05-19 00:15:00,52.8,48.7,30.23,SSW,192,0.0,0.0,86,0.00,,---,0.00,VWS V14.01,2013-05-19 04:15:00,
2013-05-19 00:19:00,52.7,49.0,30.23,SSW,192,0.0,0.0,87,0.00,,---,0.00,VWS V14.01,2013-05-19 04:19:00,
2013-05-19 00:20:00,52.7,49.0,30.23,SSW,192,0.0,0.0,87,0.00,,---,0.00,VWS V14.01,2013-05-19 04:20:00,
2013-05-19 00:24:00,52.6,48.8,30.24,SSW,192,0.0,0.0,87,0.00,,---,0.00,VWS V14.01,2013-05-19 04:24:00,
2013-05-19 00:25:00,52.7,49.0,30.24,SSW,192,0.0,0.0,87,0.00,,---,0.00,VWS V14.01,2013-05-19 04:25:00,
2013-05-19 00:29:00,52.6,48.8,30.24,SSW,192,0.0,0.0,87,0.00,,---,0.00,VWS V14.01,2013-05-19 04:29:00,
2013-05-19 00:30:00,52.6,48.8,30.24,SSW,192,0.0,0.0,87,0.00,,---,0.00,VWS V14.01,2013-05-19 04:30:00,
2013-05-19 00:34:00,52.5,48.8,30.24,SSW,192,0.0,0.0,87,0.00,,---,0.00,VWS V14.01,2013-05-19 04:34:00,
2013-05-19 00:35:00,52.6,48.8,30.24,SSW,192,0.0,0.0,87,0.00,,---,0.00,VWS V14.01,2013-05-19 04:35:00,
2013-05-19 00:39:00,52.5,49.0,30.24,SSW,192,0.0,0.0,88,0.00,,---,0.00,VWS V14.01,2013-05-19 04:39:00,
2013-05-19 00:40:00,52.5,49.1,30.24,SSW,192,0.0,0.0,88,0.00,,---,0.00,VWS V14.01,2013-05-19 04:40:00,
2013-05-19 00:44:00,52.4,49.3,30.24,SSW,192,0.0,0.0,89,0.00,,---,0.00,VWS V14.01,2013-05-19 04:44:00,
2013-05-19 00:45:00,52.4,49.0,30.24,SSW,192,0.0,0.0,88,0.00,,---,0.00,VWS V14.01,2013-05-19 04:45:00,
2013-05-19 00:49:00,52.3,49.2,30.24,SSW,192,0.0,0.0,89,0.00,,---,0.00,VWS V14.01,2013-05-19 04:49:00,
2013-05-19 00:50:00,52.3,49.2,30.24,SSW,192,0.0,0.0,89,0.00,,---,0.00,VWS V14.01,2013-05-19 04:50:00,
2013-05-19 00:55:00,52.2,48.8,30.24,SSW,192,0.0,0.0,88,0.00,,---,0.00,VWS V14.01,2013-05-19 04:55:00,
2013-05-19 01:00:00,52.1,49.0,30.24,SSW,192,0.0,0.0,89,0.00,,---,0.00,VWS V14.01,2013-05-19 05:00:00,
2013-05-19 01:05:00,51.9,48.8,30.24,SSW,192,0.0,0.0,89,0.00,,---,0.00,VWS V14.01,2013-05-19 05:05:00,
2013-05-19 01:10:00,51.8,48.7,30.24,SSW,192,0.0,0.0,89,0.00,,---,0.00,VWS V14.01,2013-05-19 05:10:00,
2013-05-19 01:15:00,51.6,48.8,30.24,SSW,192,0.0,0.0,90,0.00,,---,0.00,VWS V14.01,2013-05-19 05:15:00,
2013-05-19 01:20:00,51.4,48.6,30.24,SSW,192,0.0,0.0,90,0.00,,---,0.00,VWS V14.01,2013-05-19 05:20:00,
2013-05-19 01:25:00,51.3,48.5,30.24,SSW,192,0.0,0.0,90,0.00,,---,0.00,VWS V14.01,2013-05-19 05:25:00,
2013-05-19 01:30:00,51.1,48.3,30.24,SSW,192,0.0,0.0,90,0.00,,---,0.00,VWS V14.01,2013-05-19 05:30:00,
2013-05-19 01:35:00,51.0,48.2,30.24,SSW,192,0.0,0.0,90,0.00,,---,0.00,VWS V14.01,2013-05-19 05:35:00,
2013-05-19 01:40:00,50.8,48.0,30.24,SSW,192,0.0,0.0,90,0.00,,---,0.00,VWS V14.01,2013-05-19 05:40:00,
2013-05-19 01:45:00,50.6,48.1,30.24,SSW,192,0.0,0.0,91,0.00,,---,0.00,VWS V14.01,2013-05-19 05:45:00,
2013-05-19 01:50:00,50.4,47.9,30.25,SSW,192,0.0,0.0,91,0.00,,---,0.00,VWS V14.01,2013-05-19 05:50:00,
2013-05-19 01:55:00,50.3,47.8,30.24,SSW,192,0.0,0.0,91,0.00,,---,0.00,VWS V14.01,2013-05-19 05:55:00,
2013-05-19 02:00:00,50.1,47.6,30.24,SSW,192,0.0,0.0,91,0.00,,---,0.00,VWS V14.01,2013-05-19 06:00:00,
2013-05-19 02:05:00,50.0,47.5,30.24,SSW,192,0.0,0.0,91,0.00,,---,0.00,VWS V14.01,2013-05-19 06:05:00,
2013-05-19 02:10:00,49.7,47.2,30.24,SSW,192,0.0,0.0,91,0.00,,---,0.00,VWS V14.01,2013-05-19 06:10:00,
2013-05-19 02:15:00,49.6,47.4,30.24,SSW,192,0.0,0.0,92,0.00,,---,0.00,VWS V14.01,2013-05-19 06:15:00,
2013-05-19 02:20:00,49.4,46.9,30.24,SSW,192,0.0,0.0,91,0.00,,---,0.00,VWS V14.01,2013-05-19 06:20:00,
2013-05-19 02:25:00,49.2,47.0,30.24,SSW,192,0.0,0.0,92,0.00,,---,0.00,VWS V14.01,2013-05-19 06:25:00,
2013-05-19 02:30:00,49.1,46.9,30.25,SSW,192,0.0,0.0,92,0.00,,---,0.00,VWS V14.01,2013-05-19 06:30:00,
2013-05-19 02:35:00,48.9,46.7,30.25,SSW,192,0.0,0.0,92,0.00,,---,0.00,VWS V14.01,2013-05-19 06:35:00,
2013-05-19 02:40:00,48.7,46.5,30.25,SSW,192,0.0,0.0,92,0.00,,---,0.00,VWS V14.01,2013-05-19 06:40:00,
2013-05-19 02:45:00,48.6,46.4,30.25,SSW,192,0.0,0.0,92,0.00,,---,0.00,VWS V14.01,2013-05-19 06:45:00,
2013-05-19 02:50:00,48.5,46.3,30.25,SSW,192,0.0,0.0,92,0.00,,---,0.00,VWS V14.01,2013-05-19 06:50:00,
2013-05-19 02:51:00,48.5,46.3,30.25,SSW,192,0.0,0.0,92,0.00,,---,0.00,VWS V14.01,2013-05-19 06:51:00,
2013-05-19 02:55:00,48.4,46.2,30.25,SSW,192,0.0,0.0,92,0.00,,---,0.00,VWS V14.01,2013-05-19 06:55:00,
2013-05-19 02:56:00,48.4,46.2,30.25,SSW,192,0.0,0.0,92,0.00,,---,0.00,VWS V14.01,2013-05-19 06:56:00,
2013-05-19 03:00:00,48.4,46.2,30.25,SSW,192,0.0,0.0,92,0.00,,---,0.00,VWS V14.01,2013-05-19 07:00:00,
2013-05-19 03:01:00,48.4,46.5,30.24,SSW,192,0.0,0.0,93,0.00,,---,0.00,VWS V14.01,2013-05-19 07:01:00,
2013-05-19 03:05:00,48.5,46.6,30.25,SSW,192,0.0,0.0,93,0.00,,---,0.00,VWS V14.01,2013-05-19 07:05:00,
2013-05-19 03:06:00,48.6,46.7,30.25,SSW,192,0.0,0.0,93,0.00,,---,0.00,VWS V14.01,2013-05-19 07:06:00,
2013-05-19 03:10:00,48.7,46.8,30.25,SSW,192,0.0,0.0,93,0.00,,---,0.00,VWS V14.01,2013-05-19 07:10:00,
2013-05-19 03:11:00,48.8,47.2,30.25,SSW,192,0.0,0.0,94,0.00,,---,0.00,VWS V14.01,2013-05-19 07:11:00,
2013-05-19 03:15:00,48.8,47.2,30.25,SSW,192,0.0,0.0,94,0.00,,---,0.00,VWS V14.01,2013-05-19 07:15:00,
2013-05-19 03:16:00,48.9,47.2,30.25,SSW,192,0.0,0.0,94,0.00,,---,0.00,VWS V14.01,2013-05-19 07:16:00,
2013-05-19 03:20:00,48.9,47.2,30.25,SSW,192,0.0,0.0,94,0.00,,---,0.00,VWS V14.01,2013-05-19 07:20:00,
2013-05-19 03:21:00,49.0,47.3,30.25,SSW,192,0.0,0.0,94,0.00,,---,0.00,VWS V14.01,2013-05-19 07:21:00,
2013-05-19 03:25:00,49.1,47.5,30.25,SSW,192,0.0,0.0,94,0.00,,---,0.00,VWS V14.01,2013-05-19 07:25:00,
2013-05-19 03:26:00,49.2,47.5,30.25,SSW,192,0.0,0.0,94,0.00,,---,0.00,VWS V14.01,2013-05-19 07:26:00,
2013-05-19 03:30:00,49.2,47.5,30.25,SSW,192,0.0,0.0,94,0.00,,---,0.00,VWS V14.01,2013-05-19 07:30:00,
2013-05-19 03:31:00,49.2,47.5,30.25,SSW,192,0.0,0.0,94,0.00,,---,0.00,VWS V14.01,2013-05-19 07:31:00,
2013-05-19 03:35:00,49.3,47.7,30.25,SSW,192,0.0,0.0,94,0.00,,---,0.00,VWS V14.01,2013-05-19 07:35:00,
2013-05-19 03:36:00,49.3,47.7,30.25,SSW,192,0.0,0.0,94,0.00,,---,0.00,VWS V14.01,2013-05-19 07:36:00,
2013-05-19 03:40:00,49.2,47.5,30.25,SSW,192,0.0,0.0,94,0.00,,---,0.00,VWS V14.01,2013-05-19 07:40:00,
2013-05-19 03:41:00,49.3,47.7,30.25,SSW,192,0.0,0.0,94,0.00,,---,0.00,VWS V14.01,2013-05-19 07:41:00,
2013-05-19 03:45:00,49.3,47.7,30.25,SSW,192,0.0,0.0,94,0.00,,---,0.00,VWS V14.01,2013-05-19 07:45:00,
2013-05-19 03:46:00,49.2,47.5,30.26,SSW,192,0.0,0.0,94,0.00,,---,0.00,VWS V14.01,2013-05-19 07:46:00,
2013-05-19 03:50:00,49.2,47.5,30.26,SSW,192,0.0,0.0,94,0.00,,---,0.00,VWS V14.01,2013-05-19 07:50:00,
2013-05-19 03:51:00,49.2,47.5,30.26,SSW,192,0.0,0.0,94,0.00,,---,0.00,VWS V14.01,2013-05-19 07:51:00,
2013-05-19 03:55:00,49.2,47.5,30.26,SSW,192,0.0,0.0,94,0.00,,---,0.00,VWS V14.01,2013-05-19 07:55:00,
2013-05-19 03:56:00,49.2,47.5,30.26,SSW,192,0.0,0.0,94,0.00,,---,0.00,VWS V14.01,2013-05-19 07:56:00,
2013-05-19 04:00:00,49.2,47.5,30.26,SSW,192,0.0,0.0,94,0.00,,---,0.00,VWS V14.01,2013-05-19 08:00:00,
2013-05-19 04:01:00,49.2,47.5,30.25,SSW,192,0.0,0.0,94,0.00,,---,0.00,VWS V14.01,2013-05-19 08:01:00,
2013-05-19 04:05:00,49.2,47.5,30.25,SSW,192,0.0,0.0,94,0.00,,---,0.00,VWS V14.01,2013-05-19 08:05:00,
2013-05-19 04:06:00,49.2,47.5,30.25,SSW,192,0.0,0.0,94,0.00,,---,0.00,VWS V14.01,2013-05-19 08:06:00,
2013-05-19 04:10:00,49.3,47.7,30.25,SSW,192,0.0,0.0,94,0.00,,---,0.00,VWS V14.01,2013-05-19 08:10:00,
2013-05-19 04:11:00,49.3,47.9,30.25,SSW,192,0.0,0.0,95,0.00,,---,0.00,VWS V14.01,2013-05-19 08:11:00,
2013-05-19 04:15:00,49.3,47.9,30.26,SSW,192,0.0,0.0,95,0.00,,---,0.00,VWS V14.01,2013-05-19 08:15:00,
2013-05-19 04:16:00,49.3,47.9,30.26,SSW,192,0.0,0.0,95,0.00,,---,0.00,VWS V14.01,2013-05-19 08:16:00,
2013-05-19 04:20:00,49.3,47.9,30.26,SSW,192,0.0,0.0,95,0.00,,---,0.00,VWS V14.01,2013-05-19 08:20:00,
2013-05-19 04:21:00,49.3,47.9,30.26,SSW,192,0.0,0.0,95,0.00,,---,0.00,VWS V14.01,2013-05-19 08:21:00,
2013-05-19 04:25:00,49.4,48.0,30.26,SSW,192,0.0,0.0,95,0.00,,---,0.00,VWS V14.01,2013-05-19 08:25:00,
2013-05-19 04:27:00,49.3,47.9,30.26,East,81,1.0,3.0,95,0.00,,---,0.00,VWS V14.01,2013-05-19 08:27:00,
2013-05-19 04:30:00,49.3,47.9,30.26,East,81,0.0,3.0,95,0.00,,---,0.00,VWS V14.01,2013-05-19 08:30:00,
2013-05-19 04:32:00,49.2,47.8,30.26,East,81,0.0,0.0,95,0.00,,---,0.00,VWS V14.01,2013-05-19 08:32:00,
2013-05-19 04:35:00,49.2,47.8,30.26,East,81,0.0,0.0,95,0.00,,---,0.00,VWS V14.01,2013-05-19 08:35:00,
2013-05-19 04:37:00,49.2,47.8,30.26,East,81,0.0,0.0,95,0.00,,---,0.00,VWS V14.01,2013-05-19 08:37:00,
2013-05-19 04:40:00,49.2,47.8,30.26,East,94,0.0,1.0,95,0.00,,---,0.00,VWS V14.01,2013-05-19 08:40:00,
2013-05-19 04:42:00,49.1,47.7,30.26,SW,227,0.0,2.0,95,0.00,,---,0.00,VWS V14.01,2013-05-19 08:42:00,
2013-05-19 04:45:00,49.2,47.8,30.26,SW,227,0.0,2.0,95,0.00,,---,0.00,VWS V14.01,2013-05-19 08:45:00,
2013-05-19 04:47:00,49.1,47.7,30.26,SW,227,0.0,0.0,95,0.00,,---,0.00,VWS V14.01,2013-05-19 08:47:00,
2013-05-19 04:50:00,49.1,47.7,30.26,SW,227,0.0,0.0,95,0.00,,---,0.00,VWS V14.01,2013-05-19 08:50:00,
2013-05-19 04:52:00,49.1,47.7,30.26,SW,227,0.0,0.0,95,0.00,,---,0.00,VWS V14.01,2013-05-19 08:52:00,
2013-05-19 04:55:00,49.1,47.7,30.26,SW,227,0.0,0.0,95,0.00,,---,0.00,VWS V14.01,2013-05-19 08:55:00,
2013-05-19 04:57:00,49.1,47.7,30.26,SW,227,0.0,0.0,95,0.00,,---,0.00,VWS V14.01,2013-05-19 08:57:00,
2013-05-19 05:00:00,49.1,47.7,30.26,SW,227,0.0,1.0,95,0.00,,---,0.00,VWS V14.01,2013-05-19 09:00:00,
2013-05-19 05:02:00,49.2,47.8,30.27,SW,227,1.0,1.0,95,0.00,,---,0.00,VWS V14.01,2013-05-19 09:02:00,
2013-05-19 05:05:00,49.1,47.7,30.26,SW,227,0.0,2.0,95,0.00,,---,0.00,VWS V14.01,2013-05-19 09:05:00,
2013-05-19 05:07:00,49.1,47.7,30.27,SW,227,0.0,0.0,95,0.00,,---,0.00,VWS V14.01,2013-05-19 09:07:00,
2013-05-19 05:10:00,49.1,47.7,30.27,SW,227,0.0,0.0,95,0.00,,---,0.00,VWS V14.01,2013-05-19 09:10:00,
2013-05-19 05:12:00,49.1,47.7,30.27,SW,227,0.0,0.0,95,0.00,,---,0.00,VWS V14.01,2013-05-19 09:12:00,
2013-05-19 05:15:00,49.1,47.7,30.27,SW,227,0.0,0.0,95,0.00,,---,0.00,VWS V14.01,2013-05-19 09:15:00,
2013-05-19 05:17:00,49.1,47.7,30.27,SW,227,0.0,1.0,95,0.00,,---,0.00,VWS V14.01,2013-05-19 09:17:00,
2013-05-19 05:20:00,49.1,47.7,30.27,SW,227,0.0,1.0,95,0.00,,---,0.00,VWS V14.01,2013-05-19 09:20:00,
2013-05-19 05:22:00,49.1,47.7,30.27,SW,227,1.0,1.0,95,0.00,,---,0.00,VWS V14.01,2013-05-19 09:22:00,
2013-05-19 05:25:00,49.1,47.7,30.27,SW,227,0.0,1.0,95,0.00,,---,0.00,VWS V14.01,2013-05-19 09:25:00,
2013-05-19 05:27:00,49.1,47.7,30.27,SW,227,0.0,1.0,95,0.00,,---,0.00,VWS V14.01,2013-05-19 09:27:00,
2013-05-19 05:30:00,49.1,47.7,30.27,SW,227,0.0,1.0,95,0.00,,---,0.00,VWS V14.01,2013-05-19 09:30:00,
2013-05-19 05:32:00,49.0,47.6,30.28,SW,227,0.0,0.0,95,0.00,,---,0.00,VWS V14.01,2013-05-19 09:32:00,
2013-05-19 05:35:00,49.1,47.7,30.28,SW,227,0.0,0.0,95,0.00,,---,0.00,VWS V14.01,2013-05-19 09:35:00,
2013-05-19 05:37:00,49.0,47.6,30.28,SW,227,0.0,1.0,95,0.00,,---,0.00,VWS V14.01,2013-05-19 09:37:00,
2013-05-19 05:40:00,49.0,47.6,30.28,SW,227,0.0,1.0,95,0.00,,---,0.00,VWS V14.01,2013-05-19 09:40:00,
2013-05-19 05:42:00,49.1,47.7,30.28,SW,227,0.0,0.0,95,0.00,,---,0.00,VWS V14.01,2013-05-19 09:42:00,
2013-05-19 05:45:00,49.1,47.7,30.28,SW,227,0.0,0.0,95,0.00,,---,0.00,VWS V14.01,2013-05-19 09:45:00,
2013-05-19 05:47:00,49.1,48.0,30.28,SW,227,0.0,0.0,96,0.00,,---,0.00,VWS V14.01,2013-05-19 09:47:00,
2013-05-19 05:50:00,49.1,48.0,30.28,SW,227,0.0,0.0,96,0.00,,---,0.00,VWS V14.01,2013-05-19 09:50:00,
2013-05-19 05:52:00,49.1,48.0,30.28,SW,227,0.0,0.0,96,0.00,,---,0.00,VWS V14.01,2013-05-19 09:52:00,
2013-05-19 05:55:00,49.1,48.0,30.28,SW,227,0.0,0.0,96,0.00,,---,0.00,VWS V14.01,2013-05-19 09:55:00,
2013-05-19 05:57:00,49.2,48.1,30.28,SW,227,0.0,1.0,96,0.00,,---,0.00,VWS V14.01,2013-05-19 09:57:00,
2013-05-19 06:00:00,49.2,48.1,30.28,SW,227,1.0,1.0,96,0.00,,---,0.00,VWS V14.01,2013-05-19 10:00:00,
2013-05-19 06:02:00,49.3,48.2,30.28,SW,224,0.0,2.0,96,0.00,,---,0.00,VWS V14.01,2013-05-19 10:02:00,
2013-05-19 06:05:00,49.3,48.2,30.28,SW,224,0.0,2.0,96,0.00,,---,0.00,VWS V14.01,2013-05-19 10:05:00,
2013-05-19 06:07:00,49.3,48.2,30.29,SW,224,0.0,2.0,96,0.00,,---,0.00,VWS V14.01,2013-05-19 10:07:00,
2013-05-19 06:10:00,49.3,48.2,30.29,SW,224,0.0,2.0,96,0.00,,---,0.00,VWS V14.01,2013-05-19 10:10:00,
2013-05-19 06:12:00,49.3,48.2,30.29,SW,224,0.0,2.0,96,0.00,,---,0.00,VWS V14.01,2013-05-19 10:12:00,
2013-05-19 06:15:00,49.4,48.3,30.29,SW,224,0.0,2.0,96,0.00,,---,0.00,VWS V14.01,2013-05-19 10:15:00,
2013-05-19 06:17:00,49.4,48.3,30.29,SW,224,0.0,0.0,96,0.00,,---,0.00,VWS V14.01,2013-05-19 10:17:00,
2013-05-19 06:20:00,49.4,48.3,30.29,SW,224,0.0,0.0,96,0.00,,---,0.00,VWS V14.01,2013-05-19 10:20:00,
2013-05-19 06:23:00,49.4,48.3,30.29,SW,224,0.0,0.0,96,0.00,,---,0.00,VWS V14.01,2013-05-19 10:23:00,
2013-05-19 06:25:00,49.4,48.3,30.29,SW,224,0.0,0.0,96,0.00,,---,0.00,VWS V14.01,2013-05-19 10:25:00,
2013-05-19 06:28:00,49.5,48.4,30.29,SW,224,0.0,0.0,96,0.00,,---,0.00,VWS V14.01,2013-05-19 10:28:00,
2013-05-19 06:30:00,49.6,48.5,30.29,SW,224,0.0,0.0,96,0.00,,---,0.00,VWS V14.01,2013-05-19 10:30:00,
2013-05-19 06:33:00,49.7,48.6,30.29,SW,224,0.0,1.0,96,0.00,,---,0.00,VWS V14.01,2013-05-19 10:33:00,
2013-05-19 06:35:00,49.7,48.6,30.29,SW,224,0.0,1.0,96,0.00,,---,0.00,VWS V14.01,2013-05-19 10:35:00,
2013-05-19 06:38:00,49.8,48.7,30.30,SW,224,0.0,2.0,96,0.00,,---,0.00,VWS V14.01,2013-05-19 10:38:00,
2013-05-19 06:40:00,49.8,48.7,30.30,SW,224,0.0,2.0,96,0.00,,---,0.00,VWS V14.01,2013-05-19 10:40:00,
2013-05-19 06:43:00,49.9,48.8,30.30,SW,224,0.0,0.0,96,0.00,,---,0.00,VWS V14.01,2013-05-19 10:43:00,
2013-05-19 06:45:00,49.9,48.8,30.30,SW,224,0.0,0.0,96,0.00,,---,0.00,VWS V14.01,2013-05-19 10:45:00,
2013-05-19 06:48:00,50.0,48.9,30.30,SW,224,0.0,1.0,96,0.00,,---,0.00,VWS V14.01,2013-05-19 10:48:00,
2013-05-19 06:50:00,50.0,48.9,30.30,SW,224,0.0,1.0,96,0.00,,---,0.00,VWS V14.01,2013-05-19 10:50:00,
2013-05-19 06:53:00,50.1,49.0,30.30,SW,224,1.0,1.0,96,0.00,,---,0.00,VWS V14.01,2013-05-19 10:53:00,
2013-05-19 06:55:00,50.1,49.0,30.30,SW,224,1.0,1.0,96,0.00,,---,0.00,VWS V14.01,2013-05-19 10:55:00,
2013-05-19 06:58:00,50.2,49.1,30.30,SW,224,0.0,1.0,96,0.00,,---,0.00,VWS V14.01,2013-05-19 10:58:00,
2013-05-19 07:00:00,50.2,49.1,30.30,SW,224,0.0,1.0,96,0.00,,---,0.00,VWS V14.01,2013-05-19 11:00:00,
2013-05-19 07:03:00,50.4,49.3,30.30,SW,224,0.0,0.0,96,0.00,,---,0.00,VWS V14.01,2013-05-19 11:03:00,
2013-05-19 07:05:00,50.4,49.3,30.30,SW,224,0.0,0.0,96,0.00,,---,0.00,VWS V14.01,2013-05-19 11:05:00,
2013-05-19 07:08:00,50.5,49.4,30.30,SW,224,0.0,1.0,96,0.00,,---,0.00,VWS V14.01,2013-05-19 11:08:00,
2013-05-19 07:10:00,50.5,49.4,30.30,SW,224,0.0,1.0,96,0.00,,---,0.00,VWS V14.01,2013-05-19 11:10:00,
2013-05-19 07:13:00,50.5,49.4,30.30,SW,224,0.0,0.0,96,0.00,,---,0.00,VWS V14.01,2013-05-19 11:13:00,
2013-05-19 07:15:00,50.5,49.4,30.30,SW,224,0.0,0.0,96,0.00,,---,0.00,VWS V14.01,2013-05-19 11:15:00,
2013-05-19 07:18:00,50.6,49.5,30.30,SW,224,0.0,2.0,96,0.00,,---,0.00,VWS V14.01,2013-05-19 11:18:00,
2013-05-19 07:20:00,50.6,49.5,30.30,SW,224,0.0,2.0,96,0.00,,---,0.00,VWS V14.01,2013-05-19 11:20:00,
2013-05-19 07:23:00,50.6,49.5,30.31,SW,224,0.0,0.0,96,0.00,,---,0.00,VWS V14.01,2013-05-19 11:23:00,
2013-05-19 07:25:00,50.6,49.5,30.31,SW,224,0.0,0.0,96,0.00,,---,0.00,VWS V14.01,2013-05-19 11:25:00,
2013-05-19 07:28:00,50.8,49.7,30.31,SW,224,0.0,1.0,96,0.00,,---,0.00,VWS V14.01,2013-05-19 11:28:00,
2013-05-19 07:30:00,50.8,49.7,30.31,SW,224,0.0,1.0,96,0.00,,---,0.00,VWS V14.01,2013-05-19 11:30:00,
2013-05-19 07:33:00,50.9,49.8,30.30,SW,224,0.0,1.0,96,0.00,,---,0.00,VWS V14.01,2013-05-19 11:33:00,
2013-05-19 07:35:00,50.9,49.8,30.30,SW,224,0.0,1.0,96,0.00,,---,0.00,VWS V14.01,2013-05-19 11:35:00,
2013-05-19 07:38:00,51.1,50.0,30.30,SW,224,0.0,2.0,96,0.00,,---,0.00,VWS V14.01,2013-05-19 11:38:00,
2013-05-19 07:40:00,51.1,50.0,30.30,SW,224,0.0,2.0,96,0.00,,---,0.00,VWS V14.01,2013-05-19 11:40:00,
2013-05-19 07:43:00,51.2,50.1,30.31,SW,224,0.0,1.0,96,0.00,,---,0.00,VWS V14.01,2013-05-19 11:43:00,
2013-05-19 07:45:00,51.2,50.1,30.31,SW,224,0.0,1.0,96,0.00,,---,0.00,VWS V14.01,2013-05-19 11:45:00,
2013-05-19 07:48:00,51.2,50.1,30.31,SW,224,0.0,2.0,96,0.00,,---,0.00,VWS V14.01,2013-05-19 11:48:00,
2013-05-19 07:50:00,51.2,50.1,30.31,SW,224,0.0,2.0,96,0.00,,---,0.00,VWS V14.01,2013-05-19 11:50:00,
2013-05-19 07:53:00,51.3,50.2,30.31,SW,224,0.0,1.0,96,0.00,,---,0.00,VWS V14.01,2013-05-19 11:53:00,
2013-05-19 07:55:00,51.3,50.2,30.31,SW,224,0.0,1.0,96,0.00,,---,0.00,VWS V14.01,2013-05-19 11:55:00,
2013-05-19 07:58:00,51.3,49.9,30.30,SW,224,0.0,1.0,95,0.00,,---,0.00,VWS V14.01,2013-05-19 11:58:00,
2013-05-19 08:00:00,51.3,49.9,30.30,SW,224,0.0,1.0,95,0.00,,---,0.00,VWS V14.01,2013-05-19 12:00:00,
2013-05-19 08:03:00,51.4,50.0,30.30,SW,224,1.0,2.0,95,0.00,,---,0.00,VWS V14.01,2013-05-19 12:03:00,
2013-05-19 08:05:00,51.4,50.0,30.30,SW,224,1.0,2.0,95,0.00,,---,0.00,VWS V14.01,2013-05-19 12:05:00,
2013-05-19 08:08:00,51.6,50.2,30.30,SW,224,0.0,1.0,95,0.00,,---,0.00,VWS V14.01,2013-05-19 12:08:00,
2013-05-19 08:10:00,51.6,50.2,30.30,SW,224,0.0,1.0,95,0.00,,---,0.00,VWS V14.01,2013-05-19 12:10:00,
2013-05-19 08:13:00,51.8,50.4,30.30,SW,224,1.0,2.0,95,0.00,,---,0.00,VWS V14.01,2013-05-19 12:13:00,
2013-05-19 08:15:00,51.8,50.4,30.30,SW,224,1.0,2.0,95,0.00,,---,0.00,VWS V14.01,2013-05-19 12:15:00,
2013-05-19 08:18:00,51.9,50.5,30.30,SW,224,0.0,1.0,95,0.00,,---,0.00,VWS V14.01,2013-05-19 12:18:00,
2013-05-19 08:20:00,51.9,50.5,30.30,SW,224,0.0,1.0,95,0.00,,---,0.00,VWS V14.01,2013-05-19 12:20:00,
2013-05-19 08:23:00,52.1,50.4,30.30,SW,224,0.0,2.0,94,0.00,,---,0.00,VWS V14.01,2013-05-19 12:23:00,
2013-05-19 08:25:00,52.1,50.4,30.30,SW,224,0.0,2.0,94,0.00,,---,0.00,VWS V14.01,2013-05-19 12:25:00,
2013-05-19 08:28:00,52.4,50.7,30.30,SSW,200,1.0,2.0,94,0.00,,---,0.00,VWS V14.01,2013-05-19 12:28:00,
2013-05-19 08:30:00,52.4,50.7,30.30,SSW,200,1.0,2.0,94,0.00,,---,0.00,VWS V14.01,2013-05-19 12:30:00,
2013-05-19 08:33:00,52.8,51.1,30.30,SSW,196,2.0,3.0,94,0.00,,---,0.00,VWS V14.01,2013-05-19 12:33:00,
2013-05-19 08:35:00,52.8,51.1,30.30,SSW,196,2.0,3.0,94,0.00,,---,0.00,VWS V14.01,2013-05-19 12:35:00,
2013-05-19 08:38:00,53.0,51.0,30.30,SSW,196,1.0,3.0,93,0.00,,---,0.00,VWS V14.01,2013-05-19 12:38:00,
2013-05-19 08:40:00,53.0,51.0,30.30,SSW,196,1.0,3.0,93,0.00,,---,0.00,VWS V14.01,2013-05-19 12:40:00,
2013-05-19 08:43:00,53.1,50.8,30.30,SSW,196,1.0,3.0,92,0.00,,---,0.00,VWS V14.01,2013-05-19 12:43:00,
2013-05-19 08:45:00,53.1,50.8,30.30,SSW,196,1.0,3.0,92,0.00,,---,0.00,VWS V14.01,2013-05-19 12:45:00,
2013-05-19 08:48:00,53.3,50.7,30.30,SSW,196,2.0,2.0,91,0.00,,---,0.00,VWS V14.01,2013-05-19 12:48:00,
2013-05-19 08:50:00,53.3,50.7,30.30,SSW,196,2.0,2.0,91,0.00,,---,0.00,VWS V14.01,2013-05-19 12:50:00,
2013-05-19 08:53:00,53.5,50.9,30.31,SSW,196,0.0,0.0,91,0.00,,---,0.00,VWS V14.01,2013-05-19 12:53:00,
2013-05-19 08:55:00,53.5,50.9,30.30,SSW,196,0.0,2.0,91,0.00,,---,0.00,VWS V14.01,2013-05-19 12:55:00,
2013-05-19 08:58:00,53.9,51.3,30.30,SSW,198,1.0,1.0,91,0.00,,---,0.00,VWS V14.01,2013-05-19 12:58:00,
2013-05-19 09:00:00,53.9,51.3,30.30,SSW,198,1.0,4.0,91,0.00,,---,0.00,VWS V14.01,2013-05-19 13:00:00,
2013-05-19 09:03:00,54.2,51.6,30.30,SSW,202,3.0,5.0,91,0.00,,---,0.00,VWS V14.01,2013-05-19 13:03:00,
2013-05-19 09:05:00,54.3,51.7,30.30,SSW,205,5.0,5.0,91,0.00,,---,0.00,VWS V14.01,2013-05-19 13:05:00,
2013-05-19 09:08:00,54.6,51.7,30.30,SW,229,2.0,2.0,90,0.00,,---,0.00,VWS V14.01,2013-05-19 13:08:00,
2013-05-19 09:10:00,54.6,51.7,30.30,SW,229,2.0,5.0,90,0.00,,---,0.00,VWS V14.01,2013-05-19 13:10:00,
2013-05-19 09:13:00,55.1,51.9,30.31,WSW,244,0.0,0.0,89,0.00,,---,0.00,VWS V14.01,2013-05-19 13:13:00,
2013-05-19 09:15:00,55.0,51.8,30.30,WSW,244,0.0,3.0,89,0.00,,---,0.00,VWS V14.01,2013-05-19 13:15:00,
2013-05-19 09:18:00,55.6,52.4,30.31,SW,221,2.0,4.0,89,0.00,,---,0.00,VWS V14.01,2013-05-19 13:18:00,
2013-05-19 09:20:00,55.5,52.3,30.31,SW,220,4.0,5.0,89,0.00,,---,0.00,VWS V14.01,2013-05-19 13:20:00,
2013-05-19 09:23:00,56.0,52.2,30.30,WSW,252,1.0,2.0,87,0.00,,---,0.00,VWS V14.01,2013-05-19 13:23:00,
2013-05-19 09:25:00,55.9,52.1,30.30,WSW,252,0.0,5.0,87,0.00,,---,0.00,VWS V14.01,2013-05-19 13:25:00,
2013-05-19 09:28:00,56.2,51.8,30.30,West,263,2.0,3.0,85,0.00,,---,0.00,VWS V14.01,2013-05-19 13:28:00,
2013-05-19 09:30:00,56.2,51.8,30.30,West,263,0.0,3.0,85,0.00,,---,0.00,VWS V14.01,2013-05-19 13:30:00,
2013-05-19 09:33:00,56.6,52.2,30.30,West,263,0.0,1.0,85,0.00,,---,0.00,VWS V14.01,2013-05-19 13:33:00,
2013-05-19 09:35:00,56.5,52.0,30.30,West,263,0.0,3.0,85,0.00,,---,0.00,VWS V14.01,2013-05-19 13:35:00,
2013-05-19 09:38:00,57.1,52.6,30.30,SSW,213,4.0,4.0,85,0.00,,---,0.00,VWS V14.01,2013-05-19 13:38:00,
2013-05-19 09:40:00,57.0,52.5,30.30,SSW,204,2.0,4.0,85,0.00,,---,0.00,VWS V14.01,2013-05-19 13:40:00,
2013-05-19 09:43:00,57.5,52.4,30.30,SW,229,4.0,4.0,83,0.00,,---,0.00,VWS V14.01,2013-05-19 13:43:00,
2013-05-19 09:45:00,57.4,52.3,30.30,SW,226,3.0,6.0,83,0.00,,---,0.00,VWS V14.01,2013-05-19 13:45:00,
2013-05-19 09:48:00,57.8,52.0,30.30,SW,225,0.0,0.0,81,0.00,,---,0.00,VWS V14.01,2013-05-19 13:48:00,
2013-05-19 09:50:00,57.7,51.9,30.30,SW,225,0.0,4.0,81,0.00,,---,0.00,VWS V14.01,2013-05-19 13:50:00,
2013-05-19 09:53:00,58.2,52.7,30.30,SE,142,0.0,2.0,82,0.00,,---,0.00,VWS V14.01,2013-05-19 13:53:00,
2013-05-19 09:55:00,58.2,53.1,30.30,SE,142,1.0,3.0,83,0.00,,---,0.00,VWS V14.01,2013-05-19 13:55:00,
2013-05-19 09:58:00,58.7,53.6,30.30,East,94,2.0,2.0,83,0.00,,---,0.00,VWS V14.01,2013-05-19 13:58:00,
2013-05-19 10:00:00,58.6,53.5,30.30,East,94,0.0,4.0,83,0.00,,---,0.00,VWS V14.01,2013-05-19 14:00:00,
2013-05-19 10:04:00,59.0,52.8,30.30,East,94,2.0,2.0,80,0.00,,---,0.00,VWS V14.01,2013-05-19 14:04:00,
2013-05-19 10:05:00,59.0,52.8,30.30,East,94,0.0,2.0,80,0.00,,---,0.00,VWS V14.01,2013-05-19 14:05:00,
2013-05-19 10:09:00,59.4,52.5,30.29,SSW,205,1.0,2.0,78,0.00,,---,0.00,VWS V14.01,2013-05-19 14:09:00,
2013-05-19 10:10:00,59.3,52.5,30.29,SSW,199,2.0,4.0,78,0.00,,---,0.00,VWS V14.01,2013-05-19 14:10:00,
2013-05-19 10:14:00,59.8,52.6,30.29,SSW,200,0.0,1.0,77,0.00,,---,0.00,VWS V14.01,2013-05-19 14:14:00,
2013-05-19 10:15:00,59.8,52.9,30.29,SSW,200,0.0,2.0,78,0.00,,---,0.00,VWS V14.01,2013-05-19 14:15:00,
2013-05-19 10:19:00,60.3,52.7,30.29,WSW,238,0.0,3.0,76,0.00,,---,0.00,VWS V14.01,2013-05-19 14:19:00,
2013-05-19 10:20:00,60.2,52.6,30.29,SW,219,2.0,4.0,76,0.00,,---,0.00,VWS V14.01,2013-05-19 14:20:00,
2013-05-19 10:24:00,60.8,52.8,30.30,WSW,246,3.0,5.0,75,0.00,,---,0.00,VWS V14.01,2013-05-19 14:24:00,
2013-05-19 10:25:00,60.7,52.7,30.29,West,269,3.0,5.0,75,0.00,,---,0.00,VWS V14.01,2013-05-19 14:25:00,
2013-05-19 10:29:00,61.3,53.7,30.30,WSW,248,3.0,6.0,76,0.00,,---,0.00,VWS V14.01,2013-05-19 14:29:00,
2013-05-19 10:30:00,61.1,53.1,30.30,WNW,293,3.0,7.0,75,0.00,,---,0.00,VWS V14.01,2013-05-19 14:30:00,
2013-05-19 10:34:00,61.9,53.2,30.29,West,273,2.0,11.0,73,0.00,,---,0.00,VWS V14.01,2013-05-19 14:34:00,
2013-05-19 10:35:00,61.7,53.0,30.30,West,263,4.0,6.0,73,0.00,,---,0.00,VWS V14.01,2013-05-19 14:35:00,
2013-05-19 10:39:00,62.3,52.8,30.29,West,275,0.0,1.0,71,0.00,,---,0.00,VWS V14.01,2013-05-19 14:39:00,
2013-05-19 10:40:00,62.2,52.7,30.29,West,275,0.0,11.0,71,0.00,,---,0.00,VWS V14.01,2013-05-19 14:40:00,
2013-05-19 10:44:00,62.6,53.5,30.29,NW,304,1.0,2.0,72,0.00,,---,0.00,VWS V14.01,2013-05-19 14:44:00,
2013-05-19 10:45:00,62.5,53.7,30.29,NW,304,2.0,4.0,73,0.00,,---,0.00,VWS V14.01,2013-05-19 14:45:00,
2013-05-19 10:49:00,63.6,53.7,30.29,West,273,2.0,4.0,70,0.00,,---,0.00,VWS V14.01,2013-05-19 14:49:00,
2013-05-19 10:50:00,63.1,53.2,30.29,WSW,239,2.0,3.0,70,0.00,,---,0.00,VWS V14.01,2013-05-19 14:50:00,
2013-05-19 10:54:00,64.5,53.3,30.29,WNW,290,1.0,4.0,67,0.00,,---,0.00,VWS V14.01,2013-05-19 14:54:00,
2013-05-19 10:55:00,64.5,53.3,30.29,West,263,2.0,5.0,67,0.00,,---,0.00,VWS V14.01,2013-05-19 14:55:00,
2013-05-19 10:59:00,65.3,54.1,30.29,West,259,1.0,5.0,67,0.00,,---,0.00,VWS V14.01,2013-05-19 14:59:00,
2013-05-19 11:00:00,65.0,53.8,30.29,West,274,4.0,9.0,67,0.00,,---,0.00,VWS V14.01,2013-05-19 15:00:00,
2013-05-19 11:04:00,66.2,53.7,30.29,SW,223,0.0,6.0,64,0.00,,---,0.00,VWS V14.01,2013-05-19 15:04:00,
2013-05-19 11:05:00,66.1,54.8,30.29,WNW,297,4.0,9.0,67,0.00,,---,0.00,VWS V14.01,2013-05-19 15:05:00,
2013-05-19 11:09:00,66.4,54.3,30.28,SSW,208,6.0,7.0,65,0.00,,---,0.00,VWS V14.01,2013-05-19 15:09:00,
2013-05-19 11:10:00,66.5,53.5,30.28,West,269,3.0,6.0,63,0.00,,---,0.00,VWS V14.01,2013-05-19 15:10:00,
2013-05-19 11:14:00,67.0,54.9,30.28,WSW,246,3.0,7.0,65,0.00,,---,0.00,VWS V14.01,2013-05-19 15:14:00,
2013-05-19 11:15:00,66.7,55.0,30.28,WSW,241,2.0,7.0,66,0.00,,---,0.00,VWS V14.01,2013-05-19 15:15:00,
2013-05-19 11:19:00,66.6,53.2,30.28,SE,144,2.0,3.0,62,0.00,,---,0.00,VWS V14.01,2013-05-19 15:19:00,
2013-05-19 11:20:00,66.8,53.8,30.28,SW,228,2.0,7.0,63,0.00,,---,0.00,VWS V14.01,2013-05-19 15:20:00,
2013-05-19 11:24:00,66.7,55.4,30.28,SE,141,0.0,3.0,67,0.00,,---,0.00,VWS V14.01,2013-05-19 15:24:00,
2013-05-19 11:25:00,66.5,54.0,30.28,SE,141,2.0,3.0,64,0.00,,---,0.00,VWS V14.01,2013-05-19 15:25:00,
2013-05-19 11:29:00,66.7,54.2,30.28,SE,141,0.0,2.0,64,0.00,,---,0.00,VWS V14.01,2013-05-19 15:29:00,
2013-05-19 11:30:00,66.8,53.8,30.28,SE,141,1.0,3.0,63,0.00,,---,0.00,VWS V14.01,2013-05-19 15:30:00,
2013-05-19 11:34:00,67.2,55.5,30.27,SE,136,2.0,2.0,66,0.00,,---,0.00,VWS V14.01,2013-05-19 15:34:00,
2013-05-19 11:35:00,66.8,55.9,30.27,SE,136,0.0,2.0,68,0.00,,---,0.00,VWS V14.01,2013-05-19 15:35:00,
2013-05-19 11:39:00,68.8,54.8,30.27,SE,141,3.0,7.0,61,0.00,,---,0.00,VWS V14.01,2013-05-19 15:39:00,
2013-05-19 11:40:00,68.3,55.7,30.27,SE,133,3.0,6.0,64,0.00,,---,0.00,VWS V14.01,2013-05-19 15:40:00,
2013-05-19 11:44:00,68.8,54.8,30.27,SSW,196,1.0,5.0,61,0.00,,---,0.00,VWS V14.01,2013-05-19 15:44:00,
2013-05-19 11:45:00,68.8,54.4,30.27,SSW,202,5.0,9.0,60,0.00,,---,0.00,VWS V14.01,2013-05-19 15:45:00,
2013-05-19 11:49:00,68.1,58.0,30.27,East,83,2.0,5.0,70,0.00,,---,0.00,VWS V14.01,2013-05-19 15:49:00,
2013-05-19 11:50:00,68.3,54.3,30.27,South,187,1.0,5.0,61,0.00,,---,0.00,VWS V14.01,2013-05-19 15:50:00,
2013-05-19 11:54:00,67.9,54.0,30.27,South,171,0.0,6.0,61,0.00,,---,0.00,VWS V14.01,2013-05-19 15:54:00,
2013-05-19 11:55:00,68.1,55.0,30.27,SSW,204,4.0,5.0,63,0.00,,---,0.00,VWS V14.01,2013-05-19 15:55:00,
2013-05-19 12:00:00,68.1,55.0,30.27,SW,220,2.0,3.0,63,0.00,,---,0.00,VWS V14.01,2013-05-19 16:00:00,
2013-05-19 12:05:00,68.3,55.7,30.26,ESE,108,3.0,5.0,64,0.00,,---,0.00,VWS V14.01,2013-05-19 16:05:00,
2013-05-19 12:10:00,68.3,53.4,30.26,SE,146,0.0,2.0,59,0.00,,---,0.00,VWS V14.01,2013-05-19 16:10:00,
2013-05-19 12:15:00,68.8,54.4,30.26,SW,236,0.0,3.0,60,0.00,,---,0.00,VWS V14.01,2013-05-19 16:15:00,
2013-05-19 12:20:00,69.0,54.5,30.26,WSW,244,2.0,4.0,60,0.00,,---,0.00,VWS V14.01,2013-05-19 16:20:00,
2013-05-19 12:25:00,69.1,54.2,30.26,West,264,1.0,1.0,59,0.00,,---,0.00,VWS V14.01,2013-05-19 16:25:00,
2013-05-19 12:30:00,69.4,55.8,30.25,East,101,3.0,9.0,62,0.00,,---,0.00,VWS V14.01,2013-05-19 16:30:00,
2013-05-19 12:35:00,69.6,54.7,30.25,SW,233,1.0,4.0,59,0.00,,---,0.00,VWS V14.01,2013-05-19 16:35:00,
2013-05-19 12:40:00,69.8,54.4,30.25,SSW,210,2.0,4.0,58,0.00,,---,0.00,VWS V14.01,2013-05-19 16:40:00,
2013-05-19 12:45:00,70.0,55.0,30.25,ESE,105,1.0,3.0,59,0.00,,---,0.00,VWS V14.01,2013-05-19 16:45:00,
2013-05-19 12:50:00,70.2,53.8,30.25,SW,227,1.0,2.0,56,0.00,,---,0.00,VWS V14.01,2013-05-19 16:50:00,
2013-05-19 12:55:00,70.3,55.3,30.24,ESE,119,3.0,4.0,59,0.00,,---,0.00,VWS V14.01,2013-05-19 16:55:00,
2013-05-19 13:00:00,70.6,54.2,30.24,East,84,3.0,5.0,56,0.00,,---,0.00,VWS V14.01,2013-05-19 17:00:00,
2013-05-19 13:05:00,70.7,54.2,30.24,SE,126,1.0,4.0,56,0.00,,---,0.00,VWS V14.01,2013-05-19 17:05:00,
2013-05-19 13:10:00,70.4,55.4,30.24,SE,142,2.0,7.0,59,0.00,,---,0.00,VWS V14.01,2013-05-19 17:10:00,
2013-05-19 13:15:00,70.1,54.2,30.24,East,94,3.0,4.0,57,0.00,,---,0.00,VWS V14.01,2013-05-19 17:15:00,
2013-05-19 13:20:00,69.7,56.1,30.23,ESE,112,0.0,6.0,62,0.00,,---,0.00,VWS V14.01,2013-05-19 17:20:00,
2013-05-19 13:25:00,70.4,54.0,30.23,SE,136,1.0,3.0,56,0.00,,---,0.00,VWS V14.01,2013-05-19 17:25:00,
2013-05-19 13:30:00,70.4,54.0,30.22,East,83,5.0,5.0,56,0.00,,---,0.00,VWS V14.01,2013-05-19 17:30:00,
2013-05-19 13:35:00,70.4,52.5,30.22,East,92,0.0,5.0,53,0.00,,---,0.00,VWS V14.01,2013-05-19 17:35:00,
2013-05-19 13:36:00,70.9,53.4,30.22,ESE,105,4.0,6.0,54,0.00,,---,0.00,VWS V14.01,2013-05-19 17:36:00,
2013-05-19 13:40:00,71.0,55.0,30.22,ESE,113,7.0,8.0,57,0.00,,---,0.00,VWS V14.01,2013-05-19 17:40:00,
2013-05-19 13:41:00,71.0,53.5,30.22,East,87,2.0,7.0,54,0.00,,---,0.00,VWS V14.01,2013-05-19 17:41:00,
2013-05-19 13:45:00,71.0,55.0,30.22,WNW,300,2.0,10.0,57,0.00,,---,0.00,VWS V14.01,2013-05-19 17:45:00,
2013-05-19 13:46:00,70.8,54.3,30.22,SE,142,0.0,6.0,56,0.00,,---,0.00,VWS V14.01,2013-05-19 17:46:00,
2013-05-19 13:50:00,70.7,52.2,30.22,SSE,165,0.0,11.0,52,0.00,,---,0.00,VWS V14.01,2013-05-19 17:50:00,
2013-05-19 13:51:00,70.6,54.6,30.22,ESE,114,4.0,7.0,57,0.00,,---,0.00,VWS V14.01,2013-05-19 17:51:00,
2013-05-19 13:55:00,70.6,54.2,30.22,South,188,1.0,12.0,56,0.00,,---,0.00,VWS V14.01,2013-05-19 17:55:00,
2013-05-19 13:56:00,70.4,54.0,30.22,SSE,153,4.0,6.0,56,0.00,,---,0.00,VWS V14.01,2013-05-19 17:56:00,
2013-05-19 14:00:00,70.2,54.8,30.22,East,96,5.0,13.0,58,0.00,,---,0.00,VWS V14.01,2013-05-19 18:00:00,
2013-05-19 14:01:00,69.9,55.4,30.22,ESE,111,3.0,7.0,60,0.00,,---,0.00,VWS V14.01,2013-05-19 18:01:00,
2013-05-19 14:05:00,69.7,55.7,30.22,SE,129,4.0,7.0,61,0.00,,---,0.00,VWS V14.01,2013-05-19 18:05:00,
2013-05-19 14:06:00,69.2,55.2,30.22,East,92,6.0,11.0,61,0.00,,---,0.00,VWS V14.01,2013-05-19 18:06:00,
2013-05-19 14:10:00,69.0,55.5,30.22,NE,56,4.0,11.0,62,0.00,,---,0.00,VWS V14.01,2013-05-19 18:10:00,
2013-05-19 14:11:00,68.7,55.2,30.22,SE,142,5.0,12.0,62,0.00,,---,0.00,VWS V14.01,2013-05-19 18:11:00,
2013-05-19 14:15:00,68.5,54.5,30.22,ENE,62,6.0,12.0,61,0.00,,---,0.00,VWS V14.01,2013-05-19 18:15:00,
2013-05-19 14:16:00,68.1,54.6,30.22,SE,130,11.0,16.0,62,0.00,,---,0.00,VWS V14.01,2013-05-19 18:16:00,
2013-05-19 14:20:00,67.9,54.8,30.22,SSE,150,3.0,16.0,63,0.00,,---,0.00,VWS V14.01,2013-05-19 18:20:00,
2013-05-19 14:21:00,67.5,54.5,30.22,SE,136,5.0,16.0,63,0.00,,---,0.00,VWS V14.01,2013-05-19 18:21:00,
2013-05-19 14:25:00,67.4,54.8,30.22,SE,146,0.0,16.0,64,0.00,,---,0.00,VWS V14.01,2013-05-19 18:25:00,
2013-05-19 14:26:00,67.0,54.0,30.22,ESE,111,5.0,12.0,63,0.00,,---,0.00,VWS V14.01,2013-05-19 18:26:00,
2013-05-19 14:30:00,66.8,53.8,30.22,ESE,114,1.0,12.0,63,0.00,,---,0.00,VWS V14.01,2013-05-19 18:30:00,
2013-05-19 14:31:00,66.4,54.3,30.22,ESE,123,3.0,6.0,65,0.00,,---,0.00,VWS V14.01,2013-05-19 18:31:00,
2013-05-19 14:35:00,66.2,54.5,30.22,SE,146,4.0,10.0,66,0.00,,---,0.00,VWS V14.01,2013-05-19 18:35:00,
2013-05-19 14:36:00,65.8,54.1,30.22,East,96,4.0,14.0,66,0.00,,---,0.00,VWS V14.01,2013-05-19 18:36:00,
2013-05-19 14:40:00,65.7,54.0,30.22,ESE,123,5.0,14.0,66,0.00,,---,0.00,VWS V14.01,2013-05-19 18:40:00,
2013-05-19 14:41:00,65.4,54.6,30.22,NE,46,2.0,11.0,68,0.00,,---,0.00,VWS V14.01,2013-05-19 18:41:00,
2013-05-19 14:45:00,65.2,54.4,30.23,ESE,120,3.0,11.0,68,0.00,,---,0.00,VWS V14.01,2013-05-19 18:45:00,
2013-05-19 14:46:00,64.9,54.1,30.22,East,80,0.0,11.0,68,0.00,,---,0.00,VWS V14.01,2013-05-19 18:46:00,
2013-05-19 14:50:00,64.8,54.4,30.23,SW,219,3.0,11.0,69,0.00,,---,0.00,VWS V14.01,2013-05-19 18:50:00,
2013-05-19 14:51:00,64.5,54.1,30.22,SE,143,6.0,9.0,69,0.00,,---,0.00,VWS V14.01,2013-05-19 18:51:00,
2013-05-19 14:55:00,64.4,54.0,30.23,SE,139,0.0,9.0,69,0.00,,---,0.00,VWS V14.01,2013-05-19 18:55:00,
2013-05-19 14:56:00,64.1,54.1,30.23,SE,139,1.0,3.0,70,0.00,,---,0.00,VWS V14.01,2013-05-19 18:56:00,
2013-05-19 15:00:00,64.0,54.0,30.23,SE,130,2.0,5.0,70,0.00,,---,0.00,VWS V14.01,2013-05-19 19:00:00,
2013-05-19 15:01:00,63.7,53.7,30.22,ESE,119,1.0,8.0,70,0.00,,---,0.00,VWS V14.01,2013-05-19 19:01:00,
2013-05-19 15:05:00,63.5,53.5,30.23,ESE,103,1.0,10.0,70,0.00,,---,0.00,VWS V14.01,2013-05-19 19:05:00,
2013-05-19 15:06:00,63.2,53.7,30.22,East,95,0.0,5.0,71,0.00,,---,0.00,VWS V14.01,2013-05-19 19:06:00,
2013-05-19 15:10:00,63.1,53.9,30.22,SE,136,2.0,5.0,72,0.00,,---,0.00,VWS V14.01,2013-05-19 19:10:00,
2013-05-19 15:11:00,62.9,54.1,30.22,SE,137,2.0,6.0,73,0.00,,---,0.00,VWS V14.01,2013-05-19 19:11:00,
2013-05-19 15:15:00,62.8,54.0,30.22,SE,131,6.0,6.0,73,0.00,,---,0.00,VWS V14.01,2013-05-19 19:15:00,
2013-05-19 15:16:00,62.6,53.8,30.22,ESE,120,4.0,9.0,73,0.00,,---,0.00,VWS V14.01,2013-05-19 19:16:00,
2013-05-19 15:20:00,62.6,53.8,30.22,ESE,117,0.0,9.0,73,0.00,,---,0.00,VWS V14.01,2013-05-19 19:20:00,
2013-05-19 15:21:00,62.4,53.6,30.22,East,98,4.0,9.0,73,0.00,,---,0.00,VWS V14.01,2013-05-19 19:21:00,
2013-05-19 15:25:00,62.4,53.6,30.22,ESE,116,3.0,9.0,73,0.00,,---,0.00,VWS V14.01,2013-05-19 19:25:00,
2013-05-19 15:26:00,62.4,54.0,30.23,ESE,104,5.0,6.0,74,0.00,,---,0.00,VWS V14.01,2013-05-19 19:26:00,
2013-05-19 15:30:00,62.3,53.9,30.22,ESE,115,10.0,10.0,74,0.00,,---,0.00,VWS V14.01,2013-05-19 19:30:00,
2013-05-19 15:32:00,62.2,53.5,30.23,SE,136,6.0,10.0,73,0.00,,---,0.00,VWS V14.01,2013-05-19 19:32:00,
2013-05-19 15:35:00,62.2,53.5,30.23,ESE,104,3.0,10.0,73,0.00,,---,0.00,VWS V14.01,2013-05-19 19:35:00,
2013-05-19 15:37:00,62.0,53.6,30.23,ESE,115,5.0,10.0,74,0.00,,---,0.00,VWS V14.01,2013-05-19 19:37:00,
2013-05-19 15:40:00,62.0,53.6,30.23,NE,36,4.0,10.0,74,0.00,,---,0.00,VWS V14.01,2013-05-19 19:40:00,
2013-05-19 15:42:00,61.8,53.8,30.23,ESE,103,4.0,7.0,75,0.00,,---,0.00,VWS V14.01,2013-05-19 19:42:00,
2013-05-19 15:45:00,61.8,53.8,30.23,SE,146,1.0,9.0,75,0.00,,---,0.00,VWS V14.01,2013-05-19 19:45:00,
2013-05-19 15:47:00,61.7,53.7,30.22,SE,142,4.0,7.0,75,0.00,,---,0.00,VWS V14.01,2013-05-19 19:47:00,
2013-05-19 15:50:00,61.6,53.6,30.22,ESE,113,4.0,7.0,75,0.00,,---,0.00,VWS V14.01,2013-05-19 19:50:00,
2013-05-19 15:52:00,61.4,53.0,30.22,ENE,78,3.0,7.0,74,0.00,,---,0.00,VWS V14.01,2013-05-19 19:52:00,
2013-05-19 15:55:00,61.4,53.0,30.22,SE,146,4.0,7.0,74,0.00,,---,0.00,VWS V14.01,2013-05-19 19:55:00,
2013-05-19 15:57:00,61.2,53.2,30.23,ESE,103,4.0,10.0,75,0.00,,---,0.00,VWS V14.01,2013-05-19 19:57:00,
2013-05-19 16:00:00,61.1,53.1,30.23,East,96,6.0,10.0,75,0.00,,---,0.00,VWS V14.01,2013-05-19 20:00:00,
2013-05-19 16:02:00,60.9,52.9,30.23,NE,42,5.0,7.0,75,0.00,,---,0.00,VWS V14.01,2013-05-19 20:02:00,
2013-05-19 16:05:00,60.8,52.8,30.23,SE,124,2.0,7.0,75,0.00,,---,0.00,VWS V14.01,2013-05-19 20:05:00,
2013-05-19 16:07:00,60.6,53.0,30.23,ESE,118,5.0,7.0,76,0.00,,---,0.00,VWS V14.01,2013-05-19 20:07:00,
2013-05-19 16:10:00,60.6,52.6,30.23,East,87,4.0,7.0,75,0.00,,---,0.00,VWS V14.01,2013-05-19 20:10:00,
2013-05-19 16:12:00,60.4,52.8,30.23,SE,128,0.0,7.0,76,0.00,,---,0.00,VWS V14.01,2013-05-19 20:12:00,
2013-05-19 16:15:00,60.4,52.8,30.23,SE,146,6.0,11.0,76,0.00,,---,0.00,VWS V14.01,2013-05-19 20:15:00,
2013-05-19 16:17:00,60.2,52.6,30.23,ESE,109,3.0,7.0,76,0.00,,---,0.00,VWS V14.01,2013-05-19 20:17:00,
2013-05-19 16:20:00,60.2,52.6,30.23,East,81,3.0,7.0,76,0.00,,---,0.00,VWS V14.01,2013-05-19 20:20:00,
2013-05-19 16:22:00,60.2,52.6,30.22,ESE,122,4.0,6.0,76,0.00,,---,0.00,VWS V14.01,2013-05-19 20:22:00,
2013-05-19 16:25:00,60.1,52.5,30.22,ESE,114,1.0,6.0,76,0.00,,---,0.00,VWS V14.01,2013-05-19 20:25:00,
2013-05-19 16:27:00,60.0,52.4,30.23,SE,126,3.0,7.0,76,0.00,,---,0.00,VWS V14.01,2013-05-19 20:27:00,
2013-05-19 16:30:00,60.0,52.4,30.23,ESE,123,4.0,7.0,76,0.00,,---,0.00,VWS V14.01,2013-05-19 20:30:00,
2013-05-19 16:32:00,59.9,52.3,30.23,ESE,114,3.0,4.0,76,0.00,,---,0.00,VWS V14.01,2013-05-19 20:32:00,
2013-05-19 16:35:00,59.9,52.3,30.23,ESE,114,3.0,4.0,76,0.00,,---,0.00,VWS V14.01,2013-05-19 20:35:00,
2013-05-19 16:37:00,59.8,52.6,30.23,ESE,123,1.0,6.0,77,0.00,,---,0.00,VWS V14.01,2013-05-19 20:37:00,
2013-05-19 16:40:00,59.8,52.6,30.23,ESE,109,2.0,6.0,77,0.00,,---,0.00,VWS V14.01,2013-05-19 20:40:00,
2013-05-19 16:42:00,59.7,52.5,30.23,SE,142,0.0,5.0,77,0.00,,---,0.00,VWS V14.01,2013-05-19 20:42:00,
2013-05-19 16:45:00,59.7,52.1,30.23,SE,142,0.0,5.0,76,0.00,,---,0.00,VWS V14.01,2013-05-19 20:45:00,
2013-05-19 16:47:00,59.6,52.4,30.23,ESE,116,1.0,7.0,77,0.00,,---,0.00,VWS V14.01,2013-05-19 20:47:00,
2013-05-19 16:50:00,59.6,52.4,30.23,ESE,116,0.0,7.0,77,0.00,,---,0.00,VWS V14.01,2013-05-19 20:50:00,
2013-05-19 16:52:00,59.6,52.4,30.22,ESE,108,3.0,7.0,77,0.00,,---,0.00,VWS V14.01,2013-05-19 20:52:00,
2013-05-19 16:55:00,59.6,52.4,30.22,ESE,108,2.0,7.0,77,0.00,,---,0.00,VWS V14.01,2013-05-19 20:55:00,
2013-05-19 16:57:00,59.5,51.9,30.23,ESE,118,7.0,9.0,76,0.00,,---,0.00,VWS V14.01,2013-05-19 20:57:00,
2013-05-19 17:00:00,59.5,51.9,30.23,ESE,115,6.0,9.0,76,0.00,,---,0.00,VWS V14.01,2013-05-19 21:00:00,
2013-05-19 17:02:00,59.4,51.8,30.24,SE,128,3.0,6.0,76,0.00,,---,0.00,VWS V14.01,2013-05-19 21:02:00,
2013-05-19 17:05:00,59.4,51.8,30.24,SE,128,0.0,6.0,76,0.00,,---,0.00,VWS V14.01,2013-05-19 21:05:00,
2013-05-19 17:07:00,59.2,51.7,30.23,SE,124,0.0,4.0,76,0.00,,---,0.00,VWS V14.01,2013-05-19 21:07:00,
2013-05-19 17:10:00,59.2,51.7,30.23,SE,125,0.0,4.0,76,0.00,,---,0.00,VWS V14.01,2013-05-19 21:10:00,
2013-05-19 17:12:00,59.0,51.5,30.23,ESE,123,1.0,7.0,76,0.00,,---,0.00,VWS V14.01,2013-05-19 21:12:00,
2013-05-19 17:15:00,59.0,51.5,30.23,ESE,123,2.0,7.0,76,0.00,,---,0.00,VWS V14.01,2013-05-19 21:15:00,
2013-05-19 17:17:00,59.0,51.8,30.23,ESE,119,5.0,5.0,77,0.00,,---,0.00,VWS V14.01,2013-05-19 21:17:00,
2013-05-19 17:20:00,59.0,51.8,30.23,SE,124,6.0,6.0,77,0.00,,---,0.00,VWS V14.01,2013-05-19 21:20:00,
2013-05-19 17:22:00,59.0,51.8,30.23,SE,127,3.0,7.0,77,0.00,,---,0.00,VWS V14.01,2013-05-19 21:22:00,
2013-05-19 17:25:00,59.0,51.8,30.23,SE,126,3.0,7.0,77,0.00,,---,0.00,VWS V14.01,2013-05-19 21:25:00,
2013-05-19 17:28:00,59.0,52.2,30.23,SE,128,2.0,7.0,78,0.00,,---,0.00,VWS V14.01,2013-05-19 21:28:00,
2013-05-19 17:30:00,59.0,52.2,30.23,SE,128,3.0,7.0,78,0.00,,---,0.00,VWS V14.01,2013-05-19 21:30:00,
2013-05-19 17:33:00,58.9,52.1,30.23,SE,136,4.0,4.0,78,0.00,,---,0.00,VWS V14.01,2013-05-19 21:33:00,
2013-05-19 17:35:00,58.9,52.1,30.23,SE,136,4.0,4.0,78,0.00,,---,0.00,VWS V14.01,2013-05-19 21:35:00,
2013-05-19 17:38:00,58.7,51.9,30.23,ESE,122,1.0,4.0,78,0.00,,---,0.00,VWS V14.01,2013-05-19 21:38:00,
2013-05-19 17:40:00,58.7,51.9,30.23,ESE,122,1.0,4.0,78,0.00,,---,0.00,VWS V14.01,2013-05-19 21:40:00,
2013-05-19 17:43:00,58.6,51.8,30.23,ESE,103,2.0,3.0,78,0.00,,---,0.00,VWS V14.01,2013-05-19 21:43:00,
2013-05-19 17:45:00,58.6,51.8,30.23,ESE,103,2.0,3.0,78,0.00,,---,0.00,VWS V14.01,2013-05-19 21:45:00,
2013-05-19 17:48:00,58.5,52.0,30.23,ESE,111,2.0,3.0,79,0.00,,---,0.00,VWS V14.01,2013-05-19 21:48:00,
2013-05-19 17:50:00,58.5,52.0,30.23,ESE,111,2.0,3.0,79,0.00,,---,0.00,VWS V14.01,2013-05-19 21:50:00,
2013-05-19 17:53:00,58.5,52.0,30.23,East,93,1.0,5.0,79,0.00,,---,0.00,VWS V14.01,2013-05-19 21:53:00,
2013-05-19 17:55:00,58.5,52.0,30.23,East,93,1.0,5.0,79,0.00,,---,0.00,VWS V14.01,2013-05-19 21:55:00,
2013-05-19 17:58:00,58.3,52.2,30.23,East,101,0.0,3.0,80,0.00,,---,0.00,VWS V14.01,2013-05-19 21:58:00,
2013-05-19 18:00:00,58.3,52.2,30.23,East,101,0.0,3.0,80,0.00,,---,0.00,VWS V14.01,2013-05-19 22:00:00,
2013-05-19 18:03:00,58.2,52.4,30.23,ENE,69,0.0,1.0,81,0.00,,---,0.00,VWS V14.01,2013-05-19 22:03:00,
2013-05-19 18:05:00,58.2,52.4,30.23,ENE,69,1.0,3.0,81,0.00,,---,0.00,VWS V14.01,2013-05-19 22:05:00,
2013-05-19 18:08:00,58.1,52.6,30.23,ESE,122,0.0,0.0,82,0.00,,---,0.00,VWS V14.01,2013-05-19 22:08:00,
2013-05-19 18:10:00,58.1,52.6,30.23,ESE,122,0.0,3.0,82,0.00,,---,0.00,VWS V14.01,2013-05-19 22:10:00,
2013-05-19 18:13:00,58.0,52.9,30.23,East,90,2.0,2.0,83,0.00,,---,0.00,VWS V14.01,2013-05-19 22:13:00,
2013-05-19 18:15:00,58.0,52.9,30.23,East,90,1.0,4.0,83,0.00,,---,0.00,VWS V14.01,2013-05-19 22:15:00,
2013-05-19 18:18:00,57.7,52.6,30.23,East,90,0.0,0.0,83,0.00,,---,0.00,VWS V14.01,2013-05-19 22:18:00,
2013-05-19 18:20:00,57.7,52.6,30.23,East,90,0.0,2.0,83,0.00,,---,0.00,VWS V14.01,2013-05-19 22:20:00,
2013-05-19 18:23:00,57.5,52.7,30.23,East,90,0.0,0.0,84,0.00,,---,0.00,VWS V14.01,2013-05-19 22:23:00,
2013-05-19 18:25:00,57.5,52.7,30.23,East,90,0.0,0.0,84,0.00,,---,0.00,VWS V14.01,2013-05-19 22:25:00,
2013-05-19 18:28:00,57.3,53.2,30.23,East,90,0.0,0.0,86,0.00,,---,0.00,VWS V14.01,2013-05-19 22:28:00,
2013-05-19 18:30:00,57.3,52.8,30.23,East,90,0.0,0.0,85,0.00,,---,0.00,VWS V14.01,2013-05-19 22:30:00,
2013-05-19 18:33:00,57.1,53.0,30.23,East,90,0.0,0.0,86,0.00,,---,0.00,VWS V14.01,2013-05-19 22:33:00,
2013-05-19 18:35:00,57.1,53.0,30.23,East,90,0.0,0.0,86,0.00,,---,0.00,VWS V14.01,2013-05-19 22:35:00,
2013-05-19 18:38:00,57.0,53.2,30.23,East,90,0.0,0.0,87,0.00,,---,0.00,VWS V14.01,2013-05-19 22:38:00,
2013-05-19 18:40:00,57.0,53.2,30.23,East,90,0.0,0.0,87,0.00,,---,0.00,VWS V14.01,2013-05-19 22:40:00,
2013-05-19 18:43:00,56.8,53.3,30.23,East,90,0.0,0.0,88,0.00,,---,0.00,VWS V14.01,2013-05-19 22:43:00,
2013-05-19 18:45:00,56.8,53.3,30.23,East,90,0.0,0.0,88,0.00,,---,0.00,VWS V14.01,2013-05-19 22:45:00,
2013-05-19 18:48:00,56.6,53.4,30.23,East,90,0.0,0.0,89,0.01,,---,0.01,VWS V14.01,2013-05-19 22:48:00,
2013-05-19 18:50:00,56.6,53.4,30.23,East,90,0.0,0.0,89,0.01,,---,0.01,VWS V14.01,2013-05-19 22:50:00,
2013-05-19 18:53:00,56.3,53.1,30.23,East,90,0.0,0.0,89,0.01,,---,0.01,VWS V14.01,2013-05-19 22:53:00,
2013-05-19 18:55:00,56.4,53.2,30.23,East,90,0.0,1.0,89,0.01,,---,0.01,VWS V14.01,2013-05-19 22:55:00,
2013-05-19 18:58:00,56.1,52.9,30.23,SSE,161,0.0,0.0,89,0.01,,---,0.01,VWS V14.01,2013-05-19 22:58:00,
2013-05-19 19:00:00,56.1,53.2,30.23,SSE,161,0.0,2.0,90,0.01,,---,0.01,VWS V14.01,2013-05-19 23:00:00,
2013-05-19 19:03:00,55.8,52.9,30.23,SSE,161,0.0,0.0,90,0.01,,---,0.01,VWS V14.01,2013-05-19 23:03:00,
2013-05-19 19:05:00,55.9,53.0,30.23,SSE,161,0.0,0.0,90,0.01,,---,0.01,VWS V14.01,2013-05-19 23:05:00,
2013-05-19 19:08:00,55.7,52.8,30.23,SSE,161,0.0,0.0,90,0.01,,---,0.01,VWS V14.01,2013-05-19 23:08:00,
2013-05-19 19:10:00,55.7,52.8,30.23,SSE,161,0.0,0.0,90,0.01,,---,0.01,VWS V14.01,2013-05-19 23:10:00,
2013-05-19 19:13:00,55.5,52.9,30.23,SSE,161,0.0,0.0,91,0.01,,---,0.01,VWS V14.01,2013-05-19 23:13:00,
2013-05-19 19:15:00,55.5,52.6,30.23,SSE,161,0.0,0.0,90,0.01,,---,0.01,VWS V14.01,2013-05-19 23:15:00,
2013-05-19 19:19:00,55.3,52.7,30.23,SSE,161,0.0,0.0,91,0.01,,---,0.01,VWS V14.01,2013-05-19 23:19:00,
2013-05-19 19:20:00,55.4,52.8,30.22,SSE,161,0.0,1.0,91,0.01,,---,0.01,VWS V14.01,2013-05-19 23:20:00,
2013-05-19 19:24:00,55.1,52.5,30.22,SSE,156,0.0,1.0,91,0.01,,---,0.01,VWS V14.01,2013-05-19 23:24:00,
2013-05-19 19:25:00,55.2,52.6,30.22,SSE,156,0.0,2.0,91,0.01,,---,0.01,VWS V14.01,2013-05-19 23:25:00,
2013-05-19 19:29:00,55.0,52.4,30.22,SSW,213,0.0,1.0,91,0.01,,---,0.01,VWS V14.01,2013-05-19 23:29:00,
2013-05-19 19:30:00,55.0,52.4,30.22,SE,135,1.0,2.0,91,0.01,,---,0.01,VWS V14.01,2013-05-19 23:30:00,
2013-05-19 19:34:00,54.9,52.6,30.22,ESE,115,1.0,2.0,92,0.01,,---,0.01,VWS V14.01,2013-05-19 23:34:00,
2013-05-19 19:35:00,54.9,52.6,30.22,ESE,115,0.0,2.0,92,0.01,,---,0.01,VWS V14.01,2013-05-19 23:35:00,
2013-05-19 19:39:00,54.8,52.5,30.22,ESE,115,0.0,0.0,92,0.02,,---,0.02,VWS V14.01,2013-05-19 23:39:00,
2013-05-19 19:40:00,54.8,52.5,30.22,ESE,115,0.0,2.0,92,0.02,,---,0.02,VWS V14.01,2013-05-19 23:40:00,
2013-05-19 19:44:00,54.7,52.4,30.22,ESE,115,0.0,1.0,92,0.02,,---,0.02,VWS V14.01,2013-05-19 23:44:00,
2013-05-19 19:45:00,54.7,52.4,30.22,ESE,115,0.0,2.0,92,0.02,,---,0.02,VWS V14.01,2013-05-19 23:45:00,
2013-05-19 19:49:00,54.5,52.2,30.22,ESE,115,0.0,0.0,92,0.01,,---,0.02,VWS V14.01,2013-05-19 23:49:00,
2013-05-19 19:50:00,54.6,52.3,30.22,ESE,115,0.0,1.0,92,0.02,,---,0.02,VWS V14.01,2013-05-19 23:50:00,
2013-05-19 19:54:00,54.4,52.1,30.22,ESE,115,0.0,0.0,92,0.01,,---,0.02,VWS V14.01,2013-05-19 23:54:00,
2013-05-19 19:55:00,54.5,52.2,30.22,ESE,115,0.0,1.0,92,0.01,,---,0.02,VWS V14.01,2013-05-19 23:55:00,
2013-05-19 19:59:00,54.4,52.4,30.22,ESE,115,0.0,0.0,93,0.01,,---,0.02,VWS V14.01,2013-05-19 23:59:00,
2013-05-19 20:00:00,54.4,52.4,30.22,ESE,115,0.0,1.0,93,0.01,,---,0.02,VWS V14.01,2013-05-20 00:00:00,
2013-05-19 20:04:00,54.3,52.3,30.22,ESE,115,0.0,0.0,93,0.01,,---,0.02,VWS V14.01,2013-05-20 00:04:00,
2013-05-19 20:05:00,54.3,52.3,30.22,ESE,115,0.0,1.0,93,0.01,,---,0.02,VWS V14.01,2013-05-20 00:05:00,
2013-05-19 20:09:00,54.3,52.3,30.22,ESE,115,0.0,0.0,93,0.01,,---,0.02,VWS V14.01,2013-05-20 00:09:00,
2013-05-19 20:10:00,54.3,52.3,30.22,ESE,115,0.0,1.0,93,0.01,,---,0.02,VWS V14.01,2013-05-20 00:10:00,
2013-05-19 20:14:00,54.2,52.2,30.23,ESE,115,0.0,1.0,93,0.01,,---,0.02,VWS V14.01,2013-05-20 00:14:00,
2013-05-19 20:15:00,54.2,52.2,30.22,ESE,115,0.0,0.0,93,0.01,,---,0.02,VWS V14.01,2013-05-20 00:15:00,
2013-05-19 20:19:00,54.2,52.2,30.22,ESE,115,0.0,0.0,93,0.01,,---,0.02,VWS V14.01,2013-05-20 00:19:00,
2013-05-19 20:20:00,54.2,52.2,30.22,ESE,115,0.0,1.0,93,0.01,,---,0.02,VWS V14.01,2013-05-20 00:20:00,
2013-05-19 20:24:00,54.2,52.2,30.22,ESE,115,0.0,0.0,93,0.02,,---,0.03,VWS V14.01,2013-05-20 00:24:00,
2013-05-19 20:25:00,54.2,52.2,30.22,ESE,115,0.0,1.0,93,0.02,,---,0.03,VWS V14.01,2013-05-20 00:25:00,
2013-05-19 20:29:00,54.2,52.5,30.22,ESE,115,0.0,0.0,94,0.02,,---,0.03,VWS V14.01,2013-05-20 00:29:00,
2013-05-19 20:30:00,54.2,52.5,30.22,ESE,115,0.0,0.0,94,0.02,,---,0.03,VWS V14.01,2013-05-20 00:30:00,
2013-05-19 20:34:00,54.2,52.5,30.22,ESE,115,0.0,0.0,94,0.02,,---,0.03,VWS V14.01,2013-05-20 00:34:00,
2013-05-19 20:35:00,54.2,52.5,30.22,ESE,115,0.0,0.0,94,0.02,,---,0.03,VWS V14.01,2013-05-20 00:35:00,
2013-05-19 20:39:00,54.2,52.5,30.21,ESE,115,0.0,0.0,94,0.01,,---,0.03,VWS V14.01,2013-05-20 00:39:00,
2013-05-19 20:40:00,54.2,52.5,30.22,ESE,115,0.0,0.0,94,0.02,,---,0.03,VWS V14.01,2013-05-20 00:40:00,
2013-05-19 20:44:00,54.2,52.5,30.21,ESE,115,0.0,0.0,94,0.01,,---,0.03,VWS V14.01,2013-05-20 00:44:00,
2013-05-19 20:45:00,54.2,52.5,30.21,ESE,115,0.0,0.0,94,0.01,,---,0.03,VWS V14.01,2013-05-20 00:45:00,
2013-05-19 20:49:00,54.2,52.5,30.21,ESE,115,0.0,0.0,94,0.02,,---,0.04,VWS V14.01,2013-05-20 00:49:00,
2013-05-19 20:50:00,54.2,52.5,30.21,ESE,115,0.0,0.0,94,0.02,,---,0.04,VWS V14.01,2013-05-20 00:50:00,
2013-05-19 20:54:00,54.2,52.5,30.21,ESE,115,0.0,0.0,94,0.02,,---,0.04,VWS V14.01,2013-05-20 00:54:00,
2013-05-19 20:55:00,54.1,52.4,30.21,ESE,115,0.0,0.0,94,0.02,,---,0.04,VWS V14.01,2013-05-20 00:55:00,
2013-05-19 20:59:00,54.2,52.5,30.21,ESE,115,0.0,0.0,94,0.02,,---,0.04,VWS V14.01,2013-05-20 00:59:00,
2013-05-19 21:00:00,54.2,52.5,30.21,ESE,115,0.0,0.0,94,0.02,,---,0.04,VWS V14.01,2013-05-20 01:00:00,
2013-05-19 21:05:00,54.2,52.5,30.21,ESE,115,0.0,0.0,94,0.02,,---,0.04,VWS V14.01,2013-05-20 01:05:00,
2013-05-19 21:10:00,54.2,52.8,30.21,ESE,115,0.0,0.0,95,0.02,,---,0.04,VWS V14.01,2013-05-20 01:10:00,
2013-05-19 21:15:00,54.2,52.8,30.21,ESE,115,0.0,0.0,95,0.02,,---,0.04,VWS V14.01,2013-05-20 01:15:00,
2013-05-19 21:20:00,54.2,52.8,30.21,ESE,115,0.0,0.0,95,0.02,,---,0.04,VWS V14.01,2013-05-20 01:20:00,
2013-05-19 21:25:00,54.3,52.9,30.21,SSW,207,0.0,2.0,95,0.01,,---,0.04,VWS V14.01,2013-05-20 01:25:00,
2013-05-19 21:30:00,54.4,53.0,30.21,SW,215,0.0,0.0,95,0.01,,---,0.04,VWS V14.01,2013-05-20 01:30:00,
2013-05-19 21:35:00,54.4,53.0,30.21,SW,215,0.0,3.0,95,0.01,,---,0.04,VWS V14.01,2013-05-20 01:35:00,
2013-05-19 21:40:00,54.6,53.2,30.22,SSW,210,1.0,3.0,95,0.01,,---,0.04,VWS V14.01,2013-05-20 01:40:00,
2013-05-19 21:45:00,54.6,53.2,30.21,South,170,0.0,5.0,95,0.01,,---,0.04,VWS V14.01,2013-05-20 01:45:00,
2013-05-19 21:50:00,54.8,53.4,30.22,South,170,0.0,1.0,95,0.00,,---,0.04,VWS V14.01,2013-05-20 01:50:00,
2013-05-19 21:55:00,54.8,53.4,30.22,South,171,1.0,1.0,95,0.00,,---,0.04,VWS V14.01,2013-05-20 01:55:00,
2013-05-19 22:00:00,54.9,53.5,30.21,South,171,0.0,1.0,95,0.01,,---,0.05,VWS V14.01,2013-05-20 02:00:00,
2013-05-19 22:05:00,55.0,53.6,30.21,South,171,0.0,0.0,95,0.01,,---,0.05,VWS V14.01,2013-05-20 02:05:00,
2013-05-19 22:10:00,55.0,53.6,30.21,South,171,0.0,0.0,95,0.01,,---,0.05,VWS V14.01,2013-05-20 02:10:00,
2013-05-19 22:15:00,55.0,53.6,30.21,South,171,0.0,2.0,95,0.01,,---,0.05,VWS V14.01,2013-05-20 02:15:00,
2013-05-19 22:20:00,55.1,53.7,30.21,South,171,0.0,0.0,95,0.02,,---,0.06,VWS V14.01,2013-05-20 02:20:00,
2013-05-19 22:25:00,55.1,54.0,30.20,South,171,0.0,1.0,96,0.02,,---,0.06,VWS V14.01,2013-05-20 02:25:00,
2013-05-19 22:30:00,55.2,54.1,30.20,South,171,0.0,1.0,96,0.02,,---,0.06,VWS V14.01,2013-05-20 02:30:00,
2013-05-19 22:35:00,55.2,54.1,30.20,South,171,0.0,0.0,96,0.02,,---,0.06,VWS V14.01,2013-05-20 02:35:00,
2013-05-19 22:40:00,55.3,54.2,30.20,ESE,109,2.0,3.0,96,0.03,,---,0.07,VWS V14.01,2013-05-20 02:40:00,
2013-05-19 22:45:00,55.3,54.2,30.20,ESE,109,0.0,1.0,96,0.03,,---,0.07,VWS V14.01,2013-05-20 02:45:00,
2013-05-19 22:50:00,55.4,54.3,30.20,ESE,109,1.0,1.0,96,0.04,,---,0.08,VWS V14.01,2013-05-20 02:50:00,
2013-05-19 22:55:00,55.4,54.3,30.20,ESE,109,0.0,1.0,96,0.04,,---,0.08,VWS V14.01,2013-05-20 02:55:00,
2013-05-19 23:00:00,55.4,54.3,30.20,ESE,109,1.0,2.0,96,0.04,,---,0.08,VWS V14.01,2013-05-20 03:00:00,
2013-05-19 23:01:00,55.4,54.3,30.19,ESE,109,0.0,2.0,96,0.04,,---,0.08,VWS V14.01,2013-05-20 03:01:00,
2013-05-19 23:05:00,55.4,54.3,30.19,ESE,109,0.0,2.0,96,0.04,,---,0.08,VWS V14.01,2013-05-20 03:05:00,
2013-05-19 23:06:00,55.4,54.3,30.19,ESE,112,3.0,3.0,96,0.04,,---,0.09,VWS V14.01,2013-05-20 03:06:00,
2013-05-19 23:10:00,55.5,54.4,30.19,ESE,117,1.0,4.0,96,0.04,,---,0.09,VWS V14.01,2013-05-20 03:10:00,
2013-05-19 23:11:00,55.5,54.4,30.19,ESE,117,1.0,3.0,96,0.04,,---,0.09,VWS V14.01,2013-05-20 03:11:00,
2013-05-19 23:15:00,55.5,54.4,30.19,ESE,117,0.0,3.0,96,0.04,,---,0.09,VWS V14.01,2013-05-20 03:15:00,
2013-05-19 23:16:00,55.6,54.5,30.19,ENE,63,0.0,2.0,96,0.05,,---,0.10,VWS V14.01,2013-05-20 03:16:00,
2013-05-19 23:20:00,55.6,54.5,30.19,ENE,63,0.0,2.0,96,0.05,,---,0.10,VWS V14.01,2013-05-20 03:20:00,
2013-05-19 23:21:00,55.6,54.5,30.19,ENE,63,0.0,2.0,96,0.04,,---,0.10,VWS V14.01,2013-05-20 03:21:00,
2013-05-19 23:25:00,55.6,54.5,30.19,SE,127,0.0,3.0,96,0.04,,---,0.10,VWS V14.01,2013-05-20 03:25:00,
2013-05-19 23:26:00,55.6,54.5,30.19,South,169,1.0,3.0,96,0.05,,---,0.11,VWS V14.01,2013-05-20 03:26:00,
2013-05-19 23:30:00,55.7,54.6,30.19,South,173,0.0,3.0,96,0.05,,---,0.11,VWS V14.01,2013-05-20 03:30:00,
2013-05-19 23:31:00,55.7,54.6,30.18,SE,140,0.0,6.0,96,0.06,,---,0.12,VWS V14.01,2013-05-20 03:31:00,
2013-05-19 23:35:00,55.7,54.6,30.18,SE,140,0.0,6.0,96,0.06,,---,0.12,VWS V14.01,2013-05-20 03:35:00,
2013-05-19 23:36:00,55.7,54.6,30.18,SE,140,0.0,4.0,96,0.06,,---,0.12,VWS V14.01,2013-05-20 03:36:00,
2013-05-19 23:40:00,55.7,54.6,30.18,SE,140,0.0,4.0,96,0.06,,---,0.12,VWS V14.01,2013-05-20 03:40:00,
2013-05-19 23:41:00,55.7,54.6,30.18,SE,140,0.0,1.0,96,0.06,,---,0.12,VWS V14.01,2013-05-20 03:41:00,
2013-05-19 23:45:00,55.7,54.6,30.18,SE,140,0.0,1.0,96,0.06,,---,0.12,VWS V14.01,2013-05-20 03:45:00,
2013-05-19 23:46:00,55.7,54.6,30.18,SE,140,0.0,0.0,96,0.05,,---,0.12,VWS V14.01,2013-05-20 03:46:00,
2013-05-19 23:50:00,55.7,54.6,30.18,SE,140,2.0,2.0,96,0.05,,---,0.12,VWS V14.01,2013-05-20 03:50:00,
2013-05-19 23:51:00,55.7,54.6,30.18,SE,140,0.0,2.0,96,0.06,,---,0.13,VWS V14.01,2013-05-20 03:51:00,
2013-05-19 23:55:00,55.7,54.6,30.18,SE,140,0.0,2.0,96,0.06,,---,0.13,VWS V14.01,2013-05-20 03:55:00,
2013-05-19 23:56:00,55.7,54.6,30.17,SE,140,2.0,2.0,96,0.05,,---,0.13,VWS V14.01,2013-05-20 03:56:00,